createdAt,value
2023-04-20T06:06:34.168Z,37.63
2023-04-20T06:07:35.859Z,37.91
2023-04-20T06:08:36.577Z,37.91
2023-04-20T06:09:38.098Z,37.79
2023-04-20T06:12:29.558Z,37.34
2023-04-20T06:13:31.287Z,37.12
2023-04-20T06:14:31.955Z,37.02
2023-04-20T06:15:32.688Z,36.90
2023-04-20T06:16:33.407Z,36.78
2023-04-20T06:17:34.197Z,36.58
2023-04-20T06:18:34.855Z,36.46
2023-04-20T06:19:35.524Z,36.36
2023-04-20T06:20:36.193Z,36.25
2023-04-20T06:21:36.859Z,36.15
2023-04-20T06:22:37.521Z,36.03
2023-04-20T06:23:38.214Z,36.03
2023-04-20T06:24:38.911Z,35.91
2023-04-20T06:25:39.567Z,35.81
2023-04-20T06:26:40.236Z,35.71
2023-04-20T06:27:40.905Z,35.71
2023-04-20T06:28:41.602Z,35.60
2023-04-20T07:00:13.152Z,35.24
2023-04-20T07:01:13.925Z,32.95
2023-04-20T07:02:14.626Z,33.65
2023-04-20T07:03:46.720Z,33.93
2023-04-20T07:04:48.236Z,33.93
2023-04-20T07:05:48.978Z,33.93
2023-04-20T07:06:51.747Z,33.91
2023-04-20T07:07:50.493Z,33.91
2023-04-20T07:08:51.197Z,33.91
2023-04-20T07:09:51.903Z,33.91
2023-04-20T07:10:52.621Z,33.91
2023-04-20T07:11:53.612Z,33.81
2023-04-20T07:12:53.827Z,33.81
2023-04-20T07:13:54.566Z,33.81
2023-04-20T07:14:55.264Z,33.81
2023-04-20T07:15:55.979Z,33.81
2023-04-20T07:16:56.825Z,33.81
2023-04-20T07:17:57.540Z,33.81
2023-04-20T07:29:36.606Z,33.72
2023-04-20T07:41:09.487Z,33.43
2023-04-20T09:30:37.850Z,35.63
2023-04-20T09:31:39.544Z,35.73
2023-04-20T09:32:40.334Z,35.83
2023-04-20T09:33:40.948Z,35.71
2023-04-20T09:34:41.609Z,35.61
2023-04-20T09:35:42.219Z,35.60
2023-04-20T09:36:42.853Z,35.48
2023-04-20T09:37:43.496Z,35.38
2023-04-20T09:38:44.148Z,35.26
2023-04-20T09:39:44.774Z,35.16
2023-04-20T09:40:45.536Z,35.14
2023-04-20T09:41:46.150Z,35.05
2023-04-20T09:42:46.789Z,34.94
2023-04-20T09:43:47.427Z,34.93
2023-04-20T09:44:48.078Z,34.83
2023-04-20T09:45:48.747Z,34.83
2023-04-20T09:46:49.330Z,34.71
2023-04-20T09:47:50.142Z,34.71
2023-04-20T09:48:50.763Z,34.61
2023-04-20T09:49:51.360Z,34.61
2023-04-20T09:50:52.068Z,34.61
2023-04-20T09:51:52.724Z,34.50
2023-04-20T09:52:53.348Z,34.50
2023-04-20T09:53:53.981Z,34.50
2023-04-20T09:54:54.624Z,34.39
2023-04-20T09:55:55.253Z,34.39
2023-04-20T09:56:55.953Z,34.39
2023-04-20T09:57:56.508Z,34.39
2023-04-20T09:58:57.135Z,34.28
2023-04-20T09:59:57.743Z,34.28
2023-04-20T10:00:58.378Z,34.18
2023-04-20T10:01:59.053Z,34.18
2023-04-20T10:02:59.920Z,34.18
2023-04-20T10:04:00.779Z,34.18
2023-04-20T10:05:01.115Z,34.18
2023-04-20T10:06:01.690Z,34.08
2023-04-20T10:07:02.352Z,34.08
2023-04-20T10:08:02.970Z,34.08
2023-04-20T10:10:17.446Z,33.98
2023-04-20T10:28:04.042Z,33.58
2023-04-20T10:33:34.478Z,33.48
2023-04-20T10:40:57.006Z,33.38
2023-04-20T10:53:48.694Z,33.38
2023-04-20T11:02:20.905Z,33.70
2023-04-20T11:13:00.841Z,33.58
2023-04-20T11:30:47.510Z,33.47
2023-04-20T11:47:34.414Z,33.45
2023-04-20T12:12:06.064Z,33.25
2023-04-20T12:37:12.836Z,33.17
